Wednesday, June 20, 2018, 3:32 AM EDT
Back to Local

KGTB, Fort Drum / Wheeler-sack U. S. Army Airfield

Location: Fort Drum, NY, United States Lat: 44.05
Local Time: 3:32 AM EDT ( 7:32 GMT) Lon: -75.733
Time Zone: US/Eastern Elev: 679 ft

Show me the last for .
Show Coded

Time T Td Feel RH Dir Speed Gust Alt SLP Vis Weather Sky Remarks
2018-06-20 02:56 53 51 - 92 170° 3 - 29.92 29.92 10 CLR None
2018-06-20 01:56 52 52 - 100 180° 7 - 29.93 29.93 10 CLR 6-hr Min Temp (2am): 50.0°F
6-hr Max Temp (2am): 66.4°F
2018-06-20 00:56 51 51 - 100 200° 6 - 29.94 29.94 10 CLR 24-hr Min Temp (1am): 50.9°F
24-hr Max Temp (1am): 73.0°F
2018-06-19 23:56 53 51 - 92 200° 6 - 29.94 29.94 10 CLR None
2018-06-19 22:56 56 51 - 82 210° 6 - 29.95 29.95 10 CLR None
2018-06-19 21:56 58 52 - 80 230° 3 - 29.96 29.96 10 CLR None
2018-06-19 21:46 59 52 - 77 230° 3 - 29.96 29.96 6 HZ CLR None
2018-06-19 21:36 59 52 - 77 240° 5 - 29.95 29.95 2 HZ CLR Variable visibility
2018-06-19 20:56 62 51 - 65 260° 6 - 29.95 29.95 9 CLR None
2018-06-19 19:56 67 53 - 61 260° 6 - 29.94 29.94 10 CLR 6-hr Min Temp (8pm): 66.6°F
6-hr Max Temp (8pm): 73.0°F
2018-06-19 18:56 72 53 76 51 270° 8 - 29.93 29.93 10 CLR None
2018-06-19 17:56 73 48 76 41 320° 9 - 29.93 29.93 10 CLR None
2018-06-19 16:56 73 48 76 41 300° 6 - 29.94 29.93 10 CLR None
2018-06-19 15:56 72 47 75 42 30° 3 - 29.94 29.93 10 CLR None
2018-06-19 14:56 71 50 76 47 30° 7 - 29.94 29.93 10 CLR None
2018-06-19 13:56 70 50 - 50 20° 8 - 29.96 29.96 10 CLR 6-hr Min Temp (2pm): 57.6°F
6-hr Max Temp (2pm): 69.8°F
2018-06-19 12:59 68 50 - 52 360° 7 16 29.96 29.96 10 FEW005 None
2018-06-19 12:56 67 51 - 55 360° 9 16 29.96 29.96 10 CLR None
2018-06-19 11:56 65 50 - 58 10° 8 - 29.98 29.98 10 SCT034 None
2018-06-19 11:16 64 50 - 59 340° 7 - 29.98 29.98 10 SCT028 None
2018-06-19 11:06 64 52 - 63 350° 9 - 29.98 29.98 10 BKN028 None
2018-06-19 10:56 64 51 - 61 330° 8 - 29.98 29.97 10 SCT028 None
2018-06-19 10:36 61 50 - 67 350° 8 - 29.98 29.98 10 SCT026 None
2018-06-19 09:56 60 51 - 71 350° 8 - 29.98 29.98 10 OVC023 None
2018-06-19 09:16 59 52 - 77 10° 9 - 29.99 29.99 10 OVC020 None
2018-06-19 08:56 58 51 - 80 10° 10 - 29.98 29.98 10 OVC018 None
2018-06-19 08:26 59 52 - 77 20° 12 - 29.97 29.97 10 BKN018 OVC026 None
2018-06-19 07:56 58 52 - 77 20° 13 - 29.96 29.96 10 BKN020 24-hr Precip Total (8am): 0.01"
6-hr Min Temp (8am): 56.7°F
6-hr Max Temp (8am): 64.9°F
2018-06-19 07:36 57 52 - 82 10° 14 - 29.96 29.96 10 BKN020 None
2018-06-19 06:56 57 54 - 87 10° 14 21 29.95 29.95 10 FEW019 None
2018-06-19 06:46 57 55 - 93 360° 13 23 29.95 29.95 10 SCT017 None
2018-06-19 06:36 59 57 - 93 10° 12 - 29.94 29.93 10 SCT013 BKN019 Pressure rising rapidly
2018-06-19 06:16 59 59 - 100 20° 14 - 29.91 29.90 10 BKN014 OVC019 None
2018-06-19 06:06 59 59 - 100 360° 9 - 29.91 29.90 10 BKN016 None
2018-06-19 05:56 59 59 - 100 360° 9 - 29.91 29.90 10 SCT016 None
2018-06-19 04:56 59 59 - 100 350° 6 - 29.88 29.88 10 CLR None
2018-06-19 03:56 61 61 - 100 - Calm - 29.86 29.85 10 CLR None

Support USWX by starting your Amazon purchase here.